Time;durP1;ratioP1;P1;durP2;ratioP2;P2;SDS_P1;SDS_P2;PMS_P1;PMS_P2;Temp;Humidity;BMP_temperature;BMP_pressure;BME280_temperature;BME280_humidity;BME280_pressure;Samples;Min_cycle;Max_cycle;Signal;HPM_P1;HPM_P2
2023/03/04 00:01:43;;;;;;;21.48;2.50;;;5.50;99.90;;;;;;5056982;28;20135;-72
2023/03/04 00:04:09;;;;;;;14.90;2.28;;;5.50;99.90;;;;;;5062649;28;20040;-72
2023/03/04 00:06:35;;;;;;;20.08;2.03;;;5.50;99.90;;;;;;5061207;28;20538;-72
2023/03/04 00:09:02;;;;;;;9.95;2.13;;;5.50;99.90;;;;;;5043879;28;20048;-71
2023/03/04 00:11:28;;;;;;;16.30;1.77;;;5.50;99.90;;;;;;5070831;28;20517;-71
2023/03/04 00:13:55;;;;;;;16.27;2.28;;;5.50;99.90;;;;;;5068099;28;20051;-71
2023/03/04 00:16:21;;;;;;;17.40;2.22;;;5.50;99.90;;;;;;5047188;28;20048;-72
2023/03/04 00:18:46;;;;;;;19.13;2.00;;;5.50;99.90;;;;;;5063191;28;20070;-72
2023/03/04 00:21:12;;;;;;;18.92;2.33;;;5.50;99.90;;;;;;5052182;28;20461;-72
2023/03/04 00:23:40;;;;;;;15.85;2.00;;;5.50;99.90;;;;;;5030664;28;20044;-72
2023/03/04 00:26:08;;;;;;;16.10;1.58;;;5.50;99.90;;;;;;5070725;28;20063;-72
2023/03/04 00:28:34;;;;;;;15.43;1.90;;;6.00;99.90;;;;;;5072069;28;20048;-71
2023/03/04 00:31:00;;;;;;;18.70;2.53;;;5.50;99.90;;;;;;5067841;28;20598;-71
2023/03/04 00:33:25;;;;;;;20.08;2.30;;;5.50;99.90;;;;;;5046202;28;20083;-71
2023/03/04 00:35:51;;;;;;;17.48;1.92;;;5.50;99.90;;;;;;5051132;28;20036;-72
2023/03/04 00:38:17;;;;;;;14.18;2.53;;;5.50;99.90;;;;;;5062742;28;20044;-71
2023/03/04 00:40:42;;;;;;;22.35;2.05;;;5.50;99.90;;;;;;5064908;28;20152;-71
2023/03/04 00:43:08;;;;;;;17.02;2.22;;;5.50;99.90;;;;;;5032311;28;20052;-72
2023/03/04 00:45:34;;;;;;;16.77;2.05;;;5.60;99.90;;;;;;5064582;28;20054;-72
2023/03/04 00:47:59;;;;;;;11.63;1.70;;;5.60;99.90;;;;;;5065381;28;20045;-77
2023/03/04 00:50:25;;;;;;;16.67;1.92;;;5.50;99.90;;;;;;5053380;28;20175;-76
2023/03/04 00:52:51;;;;;;;15.43;2.38;;;5.60;99.90;;;;;;5068830;28;20040;-76
2023/03/04 00:55:16;;;;;;;17.00;2.20;;;5.60;99.90;;;;;;5055932;28;20044;-77
2023/03/04 00:57:42;;;;;;;15.90;1.70;;;5.60;99.90;;;;;;5067184;28;20514;-75
2023/03/04 01:00:09;;;;;;;18.10;2.25;;;5.60;99.90;;;;;;5055444;28;20611;-76
2023/03/04 01:02:35;;;;;;;20.52;2.33;;;5.50;99.90;;;;;;5050335;28;20047;-76
2023/03/04 01:05:00;;;;;;;15.50;2.03;;;5.60;99.90;;;;;;5032734;28;20036;-76
2023/03/04 01:07:26;;;;;;;16.92;1.90;;;5.60;99.90;;;;;;5069425;28;20044;-76
2023/03/04 01:09:52;;;;;;;19.45;2.45;;;5.50;99.90;;;;;;5057381;28;20040;-76
2023/03/04 01:12:17;;;;;;;13.18;2.75;;;5.60;99.90;;;;;;5050375;28;20138;-76
2023/03/04 01:14:43;;;;;;;11.20;1.65;;;5.60;99.90;;;;;;5028428;28;20771;-76
2023/03/04 01:17:10;;;;;;;15.82;2.65;;;5.50;99.90;;;;;;5064606;28;20592;-76
2023/03/04 01:19:36;;;;;;;11.63;1.63;;;5.90;99.90;;;;;;5051090;28;20119;-76
2023/03/04 01:22:03;;;;;;;12.45;2.22;;;5.50;99.90;;;;;;5055321;28;20256;-76
2023/03/04 01:24:29;;;;;;;13.65;1.80;;;5.50;99.90;;;;;;5062068;28;20928;-76
2023/03/04 01:26:55;;;;;;;14.15;1.75;;;5.50;99.90;;;;;;5057627;28;20040;-76
2023/03/04 01:29:21;;;;;;;12.35;1.48;;;6.10;99.90;;;;;;5037954;28;21002;-76
2023/03/04 01:31:47;;;;;;;10.93;1.98;;;5.50;99.90;;;;;;5048172;28;20040;-75
2023/03/04 01:34:13;;;;;;;21.85;1.88;;;5.50;99.90;;;;;;5052770;28;20044;-76
2023/03/04 01:36:39;;;;;;;10.10;1.40;;;5.60;99.90;;;;;;5055241;28;20040;-76
2023/03/04 01:39:04;;;;;;;18.40;2.65;;;5.50;99.90;;;;;;5071532;28;20205;-76
2023/03/04 01:41:30;;;;;;;23.13;4.00;;;5.50;99.90;;;;;;5052424;28;20074;-76
2023/03/04 01:43:59;;;;;;;12.57;1.60;;;5.50;99.90;;;;;;5064272;28;20043;-76
2023/03/04 01:46:25;;;;;;;18.90;2.05;;;5.50;99.90;;;;;;5045810;28;20045;-75
2023/03/04 01:48:51;;;;;;;18.48;2.17;;;5.70;99.90;;;;;;5069211;28;20044;-76
2023/03/04 01:51:19;;;;;;;17.85;2.20;;;5.40;99.90;;;;;;5049691;28;20048;-76
2023/03/04 01:53:49;;;;;;;16.17;2.38;;;5.40;99.90;;;;;;5030537;28;20047;-76
2023/03/04 01:56:29;;;;;;;22.08;2.33;;;5.40;99.90;;;;;;5052818;28;20047;-76
2023/03/04 01:59:09;;;;;;;14.23;1.65;;;5.40;99.90;;;;;;5030789;28;20051;-77
2023/03/04 02:01:36;;;;;;;19.00;1.88;;;5.40;99.90;;;;;;5064660;28;20044;-76
2023/03/04 02:04:02;;;;;;;15.10;1.88;;;5.40;99.90;;;;;;5033762;28;20067;-76
2023/03/04 02:06:28;;;;;;;18.10;2.15;;;5.40;99.90;;;;;;5060464;28;20052;-76
2023/03/04 02:08:54;;;;;;;15.65;1.90;;;5.60;99.90;;;;;;5064273;28;20052;-77
2023/03/04 02:11:20;;;;;;;13.40;2.17;;;5.60;99.90;;;;;;5036267;28;20074;-77
2023/03/04 02:13:46;;;;;;;17.10;2.17;;;5.40;99.90;;;;;;5045149;28;20132;-77
2023/03/04 02:16:11;;;;;;;16.75;1.95;;;5.50;99.90;;;;;;5061857;28;20041;-77
2023/03/04 02:18:37;;;;;;;15.50;2.13;;;5.40;99.90;;;;;;5062361;28;20040;-76
2023/03/04 02:21:30;;;;;;;16.75;2.00;;;5.40;99.90;;;;;;5047016;28;20075;-77
2023/03/04 02:24:11;;;;;;;13.82;1.52;;;5.40;99.90;;;;;;5034792;28;20079;-76
2023/03/04 02:26:40;;;;;;;13.77;1.88;;;5.40;99.90;;;;;;5066243;28;20062;-76
2023/03/04 02:29:08;;;;;;;12.38;2.00;;;5.40;99.90;;;;;;5043533;28;20047;-75
2023/03/04 02:31:46;;;;;;;17.50;1.98;;;5.70;99.90;;;;;;5056195;28;20043;-76
2023/03/04 02:34:19;;;;;;;10.38;1.80;;;5.40;99.90;;;;;;5047411;28;20040;-75
2023/03/04 02:36:47;;;;;;;9.07;1.38;;;5.40;99.90;;;;;;5028104;28;20078;-76
2023/03/04 02:39:24;;;;;;;18.00;2.75;;;5.40;99.90;;;;;;5062933;28;20086;-75
2023/03/04 02:41:52;;;;;;;14.88;2.58;;;5.40;99.90;;;;;;5027851;28;20497;-75
2023/03/04 02:44:20;;;;;;;9.88;1.58;;;5.40;99.90;;;;;;5067196;28;20157;-76
2023/03/04 02:46:46;;;;;;;15.60;2.65;;;5.40;99.90;;;;;;5049185;28;20047;-76
2023/03/04 02:49:12;;;;;;;17.27;1.65;;;5.50;99.90;;;;;;5047742;28;20043;-75
2023/03/04 02:51:38;;;;;;;10.75;1.23;;;5.60;99.90;;;;;;5069923;28;20421;-75
2023/03/04 02:54:12;;;;;;;13.95;1.90;;;5.60;99.90;;;;;;5065867;28;20058;-76
2023/03/04 02:56:43;;;;;;;13.20;1.58;;;5.40;99.90;;;;;;5077379;28;20043;-75
2023/03/04 02:59:08;;;;;;;13.75;1.75;;;5.30;99.90;;;;;;5074527;28;20048;-75
2023/03/04 03:01:34;;;;;;;13.00;1.50;;;5.40;99.90;;;;;;5047694;28;20123;-76
2023/03/04 03:04:00;;;;;;;11.68;1.65;;;5.30;99.90;;;;;;5056131;28;20040;-75
2023/03/04 03:06:26;;;;;;;9.68;1.80;;;5.30;99.90;;;;;;5055874;28;20048;-76
2023/03/04 03:08:51;;;;;;;24.27;2.30;;;5.40;99.90;;;;;;5064443;28;20149;-77
2023/03/04 03:11:17;;;;;;;9.68;1.63;;;5.40;99.90;;;;;;5064080;28;20033;-77
2023/03/04 03:13:42;;;;;;;16.85;1.77;;;5.40;99.90;;;;;;5052327;28;20122;-76
2023/03/04 03:16:08;;;;;;;8.45;1.48;;;5.70;99.90;;;;;;5044226;28;20695;-76
2023/03/04 03:18:34;;;;;;;14.05;2.13;;;5.40;99.90;;;;;;5043334;28;20044;-77
2023/03/04 03:21:00;;;;;;;15.93;1.90;;;5.50;99.90;;;;;;5045982;28;20459;-77
2023/03/04 03:23:25;;;;;;;12.00;1.85;;;5.40;99.90;;;;;;5052148;28;20036;-76
2023/03/04 03:25:51;;;;;;;13.52;2.15;;;5.40;99.90;;;;;;5051621;28;20145;-76
2023/03/04 03:28:17;;;;;;;16.05;1.88;;;5.40;99.90;;;;;;5052371;28;20736;-76
2023/03/04 03:30:43;;;;;;;13.43;1.70;;;5.40;99.90;;;;;;5046735;28;20509;-76
2023/03/04 03:33:08;;;;;;;14.88;2.17;;;5.90;99.90;;;;;;5071680;28;20048;-76
2023/03/04 03:35:34;;;;;;;12.20;1.77;;;5.40;99.90;;;;;;5073036;28;20105;-75
2023/03/04 03:38:00;;;;;;;14.68;1.98;;;5.40;99.90;;;;;;5066113;28;20110;-76
2023/03/04 03:40:25;;;;;;;17.13;2.25;;;5.40;99.90;;;;;;5066825;28;20040;-76
2023/03/04 03:42:51;;;;;;;10.85;1.42;;;5.40;99.90;;;;;;5051392;28;20040;-76
2023/03/04 03:45:17;;;;;;;16.90;2.92;;;5.40;99.90;;;;;;5049211;28;20040;-76
2023/03/04 03:47:42;;;;;;;15.75;1.75;;;5.40;99.90;;;;;;5058241;28;20101;-76
2023/03/04 03:50:09;;;;;;;13.48;1.80;;;5.40;99.90;;;;;;5046504;28;20044;-76
2023/03/04 03:52:34;;;;;;;10.75;1.33;;;5.40;99.90;;;;;;5057214;28;20105;-76
2023/03/04 03:55:00;;;;;;;8.85;1.73;;;5.40;99.90;;;;;;5050043;28;20041;-76
2023/03/04 03:57:27;;;;;;;16.02;1.85;;;5.40;99.90;;;;;;5068069;28;20067;-76
2023/03/04 03:59:53;;;;;;;12.45;1.77;;;5.40;99.90;;;;;;5051960;28;20395;-76
2023/03/04 04:02:19;;;;;;;10.52;1.25;;;5.40;99.90;;;;;;5048110;28;20050;-71
2023/03/04 04:04:44;;;;;;;17.80;2.28;;;5.40;99.90;;;;;;5070867;28;20051;-71
2023/03/04 04:07:10;;;;;;;11.43;1.17;;;5.50;99.90;;;;;;5051203;28;20503;-71
2023/03/04 04:09:36;;;;;;;11.10;1.70;;;6.10;99.90;;;;;;5065965;28;20131;-72
2023/03/04 04:12:04;;;;;;;14.77;2.20;;;5.50;99.90;;;;;;5065304;28;20044;-72
2023/03/04 04:14:30;;;;;;;14.55;1.98;;;5.50;99.90;;;;;;5051235;28;20553;-72
2023/03/04 04:16:56;;;;;;;12.82;1.20;;;5.80;99.90;;;;;;5029967;28;20037;-71
2023/03/04 04:19:21;;;;;;;17.65;1.88;;;5.50;99.90;;;;;;5050027;28;20139;-72
2023/03/04 04:21:48;;;;;;;10.80;1.40;;;5.50;99.90;;;;;;5034834;28;20044;-72
2023/03/04 04:24:14;;;;;;;9.18;1.48;;;5.50;99.90;;;;;;5048657;28;20071;-72
2023/03/04 04:26:40;;;;;;;12.10;1.23;;;5.50;99.90;;;;;;5043829;28;20523;-71
2023/03/04 04:29:06;;;;;;;14.52;1.52;;;5.50;99.90;;;;;;5058898;28;20190;-71
2023/03/04 04:31:32;;;;;;;14.02;1.63;;;5.50;99.90;;;;;;5031172;28;20375;-72
2023/03/04 04:33:58;;;;;;;7.65;1.40;;;5.50;99.90;;;;;;5043859;28;20417;-71
2023/03/04 04:36:24;;;;;;;13.65;1.98;;;5.50;99.90;;;;;;5042583;28;20182;-71
2023/03/04 04:38:49;;;;;;;15.25;1.60;;;5.50;99.90;;;;;;5049429;28;20613;-72
2023/03/04 04:41:22;;;;;;;13.73;2.00;;;6.00;99.90;;;;;;5050797;28;20070;-70
2023/03/04 04:43:48;;;;;;;7.97;1.30;;;5.50;99.90;;;;;;5045531;28;20470;-71
2023/03/04 04:46:15;;;;;;;8.57;1.20;;;5.50;99.90;;;;;;5024843;28;20056;-72
2023/03/04 04:48:41;;;;;;;10.52;1.30;;;5.50;99.90;;;;;;5041667;28;20064;-71
2023/03/04 04:51:07;;;;;;;12.43;1.60;;;5.80;99.90;;;;;;5027370;28;20041;-71
2023/03/04 04:53:33;;;;;;;18.80;2.28;;;5.50;99.90;;;;;;5049765;28;20041;-71
2023/03/04 04:55:59;;;;;;;8.73;1.20;;;5.60;99.90;;;;;;5049737;28;20044;-71
2023/03/04 04:58:25;;;;;;;8.27;1.50;;;5.50;99.90;;;;;;5047638;28;20049;-71
2023/03/04 05:00:50;;;;;;;6.30;1.27;;;5.60;99.90;;;;;;5050688;28;20033;-71
2023/03/04 05:03:16;;;;;;;8.40;2.10;;;5.60;99.90;;;;;;5046144;28;20133;-72
2023/03/04 05:05:42;;;;;;;9.70;1.33;;;5.60;99.90;;;;;;5043413;28;20055;-71
2023/03/04 05:08:08;;;;;;;12.32;1.70;;;5.70;99.90;;;;;;5050001;28;20041;-71
2023/03/04 05:10:33;;;;;;;7.55;1.20;;;5.60;99.90;;;;;;5045241;28;20047;-71
2023/03/04 05:12:59;;;;;;;13.40;1.85;;;5.60;99.90;;;;;;5043514;28;20041;-71
2023/03/04 05:15:25;;;;;;;7.97;1.17;;;5.60;99.90;;;;;;5052102;28;20125;-71
2023/03/04 05:17:50;;;;;;;16.02;1.25;;;5.60;99.90;;;;;;5044233;28;20051;-71
2023/03/04 05:20:16;;;;;;;10.55;1.70;;;5.90;99.90;;;;;;5043757;28;20131;-70
2023/03/04 05:22:42;;;;;;;10.52;1.30;;;5.60;99.90;;;;;;5043148;28;20094;-71
2023/03/04 05:25:08;;;;;;;10.70;1.10;;;5.60;99.90;;;;;;5045599;28;20045;-71
2023/03/04 05:27:34;;;;;;;10.63;1.10;;;5.60;99.90;;;;;;5043328;28;20045;-72
2023/03/04 05:29:59;;;;;;;9.07;1.38;;;5.70;99.90;;;;;;5044262;28;20045;-73
2023/03/04 05:32:26;;;;;;;7.82;1.20;;;5.60;99.90;;;;;;5041965;28;20040;-71
2023/03/04 05:34:52;;;;;;;11.93;1.85;;;5.70;99.90;;;;;;5040159;28;20049;-72
2023/03/04 05:37:17;;;;;;;7.95;1.20;;;5.60;99.90;;;;;;5045004;28;20040;-73
2023/03/04 05:39:43;;;;;;;6.75;1.23;;;5.60;99.90;;;;;;5042083;28;20060;-73
2023/03/04 05:42:09;;;;;;;10.43;1.40;;;5.70;99.90;;;;;;5030699;28;20045;-71
2023/03/04 05:44:34;;;;;;;14.93;1.13;;;6.00;99.90;;;;;;5042180;28;20409;-71
2023/03/04 05:47:00;;;;;;;11.20;2.08;;;5.70;99.90;;;;;;5043450;28;20525;-72
2023/03/04 05:49:26;;;;;;;19.60;2.03;;;5.60;99.90;;;;;;5042404;28;20049;-71
2023/03/04 05:51:52;;;;;;;10.80;1.90;;;5.60;99.90;;;;;;5038034;28;20052;-72
2023/03/04 05:54:17;;;;;;;16.00;2.17;;;5.90;99.90;;;;;;5036512;28;20040;-70
2023/03/04 05:56:43;;;;;;;8.63;1.35;;;5.60;99.90;;;;;;5037711;28;20191;-71
2023/03/04 05:59:09;;;;;;;11.88;1.88;;;5.60;99.90;;;;;;5036233;28;20516;-71
2023/03/04 06:01:35;;;;;;;14.05;1.80;;;5.60;99.90;;;;;;5035538;28;20044;-70
2023/03/04 06:04:01;;;;;;;10.98;1.42;;;5.60;99.90;;;;;;5028364;28;20135;-70
2023/03/04 06:06:26;;;;;;;14.00;1.55;;;6.10;99.90;;;;;;5031617;28;20045;-70
2023/03/04 06:08:52;;;;;;;10.85;1.40;;;5.60;99.90;;;;;;5032507;28;20045;-71
2023/03/04 06:11:18;;;;;;;11.93;1.60;;;5.60;99.90;;;;;;5032515;28;20603;-71
2023/03/04 06:13:43;;;;;;;9.20;1.58;;;5.60;99.90;;;;;;5022697;28;21769;-71
2023/03/04 06:16:09;;;;;;;8.23;1.02;;;5.60;99.90;;;;;;5037240;28;20635;-71
2023/03/04 06:18:35;;;;;;;17.48;1.67;;;5.50;99.90;;;;;;5055788;28;20033;-71
2023/03/04 06:21:02;;;;;;;8.32;1.40;;;5.50;99.90;;;;;;5039792;28;20045;-71
2023/03/04 06:23:29;;;;;;;12.82;1.75;;;5.50;99.90;;;;;;5016936;28;21509;-71
2023/03/04 06:25:57;;;;;;;11.77;1.42;;;5.60;99.90;;;;;;5032552;28;20461;-71
2023/03/04 06:28:23;;;;;;;14.65;2.15;;;5.50;99.90;;;;;;5053258;28;20080;-71
2023/03/04 06:30:53;;;;;;;15.32;1.83;;;5.50;99.90;;;;;;5057700;28;20083;-70
2023/03/04 06:33:19;;;;;;;10.38;1.65;;;5.70;99.90;;;;;;5052279;28;20037;-71
2023/03/04 06:35:46;;;;;;;19.10;2.13;;;5.50;99.90;;;;;;5041065;28;20040;-72
2023/03/04 06:38:11;;;;;;;12.38;1.30;;;5.50;99.90;;;;;;5043120;28;20448;-71
2023/03/04 06:40:37;;;;;;;10.40;1.55;;;5.50;99.90;;;;;;5056601;28;20040;-72
2023/03/04 06:43:03;;;;;;;13.38;1.35;;;5.50;99.90;;;;;;5060791;28;20509;-71
2023/03/04 06:45:29;;;;;;;9.82;1.45;;;5.90;99.90;;;;;;5033669;28;20041;-71
2023/03/04 06:47:54;;;;;;;12.20;1.88;;;5.50;99.90;;;;;;5040322;28;20098;-71
2023/03/04 06:50:20;;;;;;;14.23;1.67;;;5.50;99.90;;;;;;5053031;28;20041;-72
2023/03/04 06:52:46;;;;;;;10.82;1.35;;;5.50;99.90;;;;;;5031794;28;20124;-71
2023/03/04 06:55:12;;;;;;;14.73;1.52;;;5.50;99.90;;;;;;5055029;28;20538;-71
2023/03/04 06:57:38;;;;;;;13.50;1.42;;;5.60;99.90;;;;;;5043100;28;20040;-71
2023/03/04 07:00:05;;;;;;;12.27;1.40;;;6.00;99.90;;;;;;5048958;28;20402;-71
2023/03/04 07:02:34;;;;;;;8.77;1.08;;;5.60;99.90;;;;;;5032237;28;20079;-71
2023/03/04 07:04:59;;;;;;;12.27;1.20;;;5.60;99.90;;;;;;5036718;28;20032;-72
2023/03/04 07:07:26;;;;;;;16.40;2.13;;;5.60;99.90;;;;;;5063477;28;20107;-71
2023/03/04 07:09:51;;;;;;;10.75;2.60;;;5.70;99.90;;;;;;5063849;28;20151;-71
2023/03/04 07:12:17;;;;;;;14.20;1.38;;;5.70;99.90;;;;;;5024558;28;20187;-71
2023/03/04 07:14:43;;;;;;;14.52;1.60;;;5.70;99.90;;;;;;5038785;28;20045;-71
2023/03/04 07:17:09;;;;;;;12.00;1.30;;;5.70;99.90;;;;;;5042956;28;20048;-71
2023/03/04 07:19:34;;;;;;;13.25;1.77;;;5.70;99.90;;;;;;5033578;28;20120;-71
2023/03/04 07:22:00;;;;;;;11.10;1.48;;;6.30;99.90;;;;;;5051614;28;20604;-71
2023/03/04 07:24:26;;;;;;;15.18;1.92;;;5.60;99.90;;;;;;5031713;28;20044;-71
2023/03/04 07:26:51;;;;;;;13.30;1.50;;;5.70;99.90;;;;;;5026345;28;20072;-72
2023/03/04 07:29:17;;;;;;;12.73;1.50;;;5.70;99.90;;;;;;5024810;28;20049;-71
2023/03/04 07:31:43;;;;;;;12.27;1.73;;;5.70;99.90;;;;;;5010542;28;20084;-72
2023/03/04 07:34:12;;;;;;;11.63;1.60;;;5.70;99.90;;;;;;5029909;28;20737;-72
2023/03/04 07:36:38;;;;;;;16.15;2.10;;;5.70;99.90;;;;;;5030898;28;20202;-73
2023/03/04 07:39:04;;;;;;;12.82;2.58;;;5.80;99.90;;;;;;5032914;28;20049;-72
2023/03/04 07:41:31;;;;;;;17.48;2.50;;;5.80;99.90;;;;;;5028255;28;20052;-73
2023/03/04 07:43:58;;;;;;;20.35;2.08;;;5.80;99.90;;;;;;5043796;28;20053;-72
2023/03/04 07:46:24;;;;;;;21.73;1.90;;;5.80;99.90;;;;;;5024961;28;20597;-72
2023/03/04 07:48:50;;;;;;;22.42;3.05;;;5.80;99.90;;;;;;5008249;28;20052;-72
2023/03/04 07:51:18;;;;;;;16.77;2.33;;;5.80;99.90;;;;;;5016157;28;20044;-72
2023/03/04 07:53:46;;;;;;;18.50;2.40;;;5.90;99.90;;;;;;5029160;28;20125;-72
2023/03/04 07:56:18;;;;;;;18.38;2.58;;;5.90;99.90;;;;;;5009386;28;20395;-72
2023/03/04 07:58:44;;;;;;;21.73;2.50;;;5.90;99.90;;;;;;5028038;28;20791;-71
2023/03/04 08:01:12;;;;;;;20.83;2.28;;;6.00;99.90;;;;;;5030295;28;20040;-72
2023/03/04 08:03:38;;;;;;;20.98;2.85;;;6.00;99.90;;;;;;5026559;28;20068;-72
2023/03/04 08:06:08;;;;;;;19.55;2.50;;;6.50;99.90;;;;;;5029326;28;20855;-72
2023/03/04 08:08:35;;;;;;;16.48;2.17;;;6.00;99.90;;;;;;5025045;28;20055;-71
2023/03/04 08:11:07;;;;;;;20.05;2.53;;;6.00;99.90;;;;;;5039166;28;20593;-71
2023/03/04 08:13:34;;;;;;;15.68;2.28;;;6.00;99.90;;;;;;5023374;28;20106;-72
2023/03/04 08:16:00;;;;;;;21.73;2.42;;;6.00;99.90;;;;;;5028727;28;20048;-73
2023/03/04 08:18:25;;;;;;;17.50;2.00;;;6.00;99.90;;;;;;5029646;28;20127;-71
2023/03/04 08:20:51;;;;;;;19.38;2.70;;;6.00;99.90;;;;;;5027897;28;20580;-72
2023/03/04 08:23:18;;;;;;;16.50;3.17;;;6.20;99.90;;;;;;5029385;28;20053;-72
2023/03/04 08:25:44;;;;;;;16.00;2.20;;;6.20;99.90;;;;;;5032011;28;20041;-73
2023/03/04 08:28:12;;;;;;;16.52;2.38;;;6.00;99.90;;;;;;5028465;28;20061;-71
2023/03/04 08:30:39;;;;;;;20.33;2.05;;;6.00;99.90;;;;;;5030041;28;20868;-71
2023/03/04 08:33:05;;;;;;;18.80;3.20;;;6.00;99.90;;;;;;5026707;28;20120;-71
2023/03/04 08:35:32;;;;;;;14.30;2.28;;;6.00;99.90;;;;;;5031671;28;20570;-72
2023/03/04 08:37:57;;;;;;;19.65;2.45;;;6.00;99.90;;;;;;5020910;28;20055;-71
2023/03/04 08:40:25;;;;;;;15.70;2.17;;;6.30;99.90;;;;;;5030052;28;20091;-72
2023/03/04 08:42:52;;;;;;;15.27;2.25;;;6.00;99.90;;;;;;5031147;28;20041;-71
2023/03/04 08:45:17;;;;;;;24.33;3.10;;;6.00;99.90;;;;;;5031304;28;20136;-73
2023/03/04 08:47:43;;;;;;;18.90;3.28;;;6.00;99.90;;;;;;5031868;28;20091;-73
2023/03/04 08:50:10;;;;;;;19.00;2.38;;;6.10;99.90;;;;;;5031546;28;20044;-74
2023/03/04 08:52:35;;;;;;;22.67;3.35;;;6.00;99.90;;;;;;5016283;28;20041;-73
2023/03/04 08:55:02;;;;;;;16.75;2.60;;;6.10;99.90;;;;;;5019292;28;20116;-71
2023/03/04 08:57:27;;;;;;;25.05;2.88;;;6.10;99.90;;;;;;5016054;28;20501;-71
2023/03/04 08:59:53;;;;;;;27.65;3.53;;;6.10;99.90;;;;;;5032025;28;20056;-71
2023/03/04 09:02:19;;;;;;;13.73;2.63;;;6.10;99.90;;;;;;5029572;28;20045;-72
2023/03/04 09:04:45;;;;;;;14.82;2.25;;;6.10;99.90;;;;;;5034764;28;20049;-71
2023/03/04 09:07:11;;;;;;;28.45;3.13;;;6.20;99.90;;;;;;5034954;28;20037;-72
2023/03/04 09:09:37;;;;;;;28.73;3.20;;;6.20;99.90;;;;;;5018935;28;20480;-71
2023/03/04 09:12:02;;;;;;;17.27;3.22;;;6.20;99.90;;;;;;5029279;28;20048;-72
2023/03/04 09:14:28;;;;;;;20.75;2.70;;;6.20;99.90;;;;;;5027717;28;20056;-73
2023/03/04 09:16:54;;;;;;;21.13;2.72;;;6.40;99.90;;;;;;5034670;28;20037;-73
2023/03/04 09:19:20;;;;;;;19.52;2.35;;;6.20;99.90;;;;;;5037408;28;20073;-72
2023/03/04 09:21:45;;;;;;;20.17;2.53;;;6.50;99.90;;;;;;5020032;28;20525;-71
2023/03/04 09:24:11;;;;;;;21.63;2.90;;;6.20;99.90;;;;;;5032647;28;20095;-72
2023/03/04 09:26:37;;;;;;;26.48;2.80;;;6.30;99.90;;;;;;5036457;28;20815;-72
2023/03/04 09:29:03;;;;;;;23.60;3.45;;;6.40;99.90;;;;;;5040291;28;20545;-71
2023/03/04 09:31:29;;;;;;;17.70;2.55;;;6.30;99.90;;;;;;5034741;28;20045;-72
2023/03/04 09:33:57;;;;;;;15.77;2.25;;;6.40;99.90;;;;;;5040164;28;20725;-71
2023/03/04 09:36:23;;;;;;;13.80;2.53;;;6.40;99.90;;;;;;5036948;28;20620;-72
2023/03/04 09:38:49;;;;;;;19.90;2.83;;;6.40;99.90;;;;;;5033404;28;20045;-73
2023/03/04 09:41:25;;;;;;;20.83;2.47;;;6.40;99.90;;;;;;5037172;28;20047;-72
2023/03/04 09:43:53;;;;;;;17.00;2.90;;;6.40;99.90;;;;;;5037619;28;20643;-71
2023/03/04 09:46:33;;;;;;;16.83;2.65;;;6.50;99.90;;;;;;5036034;28;20462;-72
2023/03/04 09:48:59;;;;;;;17.67;3.00;;;6.40;99.90;;;;;;5030079;28;20140;-71
2023/03/04 09:51:43;;;;;;;16.58;1.90;;;6.40;99.90;;;;;;5021250;28;20057;-72
2023/03/04 09:54:22;;;;;;;14.35;1.83;;;6.40;99.90;;;;;;5053979;28;20055;-72
2023/03/04 09:56:51;;;;;;;14.20;1.98;;;6.40;99.90;;;;;;5034039;28;20418;-72
2023/03/04 09:59:30;;;;;;;10.75;1.88;;;6.30;99.90;;;;;;5031263;28;20604;-72
2023/03/04 10:01:59;;;;;;;12.50;2.15;;;6.30;99.90;;;;;;5032561;28;20533;-72
2023/03/04 10:04:43;;;;;;;7.72;1.23;;;6.30;99.90;;;;;;5027844;28;20045;-74
2023/03/04 10:07:22;;;;;;;9.50;1.33;;;6.30;99.90;;;;;;5032424;28;20703;-72
2023/03/04 10:10:09;;;;;;;13.10;1.35;;;6.30;99.90;;;;;;5032337;28;20680;-72
2023/03/04 10:12:39;;;;;;;14.15;1.50;;;6.30;99.90;;;;;;5034980;28;20041;-72
2023/03/04 10:15:26;;;;;;;6.57;1.05;;;6.30;99.90;;;;;;5034718;28;20033;-71
2023/03/04 10:17:59;;;;;;;11.32;1.65;;;6.60;99.90;;;;;;5007099;28;20049;-71
2023/03/04 10:20:32;;;;;;;10.02;1.45;;;6.40;99.90;;;;;;5030245;28;20136;-72
2023/03/04 10:23:08;;;;;;;13.27;1.67;;;6.50;99.90;;;;;;5041458;28;20053;-70
2023/03/04 10:25:38;;;;;;;11.15;1.50;;;6.50;99.90;;;;;;5036160;28;20644;-71
2023/03/04 10:28:17;;;;;;;10.40;1.45;;;6.50;99.90;;;;;;5027872;28;20629;-71
2023/03/04 10:31:06;;;;;;;13.95;1.90;;;6.50;99.90;;;;;;5033318;28;20064;-71
2023/03/04 10:33:35;;;;;;;10.90;1.73;;;6.60;99.90;;;;;;5031165;28;20049;-70
2023/03/04 10:36:04;;;;;;;15.13;2.88;;;6.70;99.90;;;;;;5023301;28;20043;-71
2023/03/04 10:38:35;;;;;;;14.23;1.88;;;6.60;99.90;;;;;;5018649;28;20061;-71
2023/03/04 10:41:12;;;;;;;13.90;1.70;;;6.60;99.90;;;;;;5025150;28;20822;-72
2023/03/04 10:43:38;;;;;;;15.13;1.30;;;6.80;99.90;;;;;;5031996;28;20363;-72
2023/03/04 10:46:04;;;;;;;20.20;2.20;;;6.60;99.90;;;;;;5029062;28;20093;-71
2023/03/04 10:48:31;;;;;;;13.88;1.95;;;6.60;99.90;;;;;;5027239;28;20848;-72
2023/03/04 10:51:25;;;;;;;27.55;2.80;;;6.60;99.90;;;;;;5018186;28;20110;-72
2023/03/04 10:53:57;;;;;;;19.25;2.90;;;6.70;99.90;;;;;;5033109;28;20084;-72
2023/03/04 10:56:38;;;;;;;22.00;3.05;;;6.70;99.90;;;;;;5044797;28;20839;-72
2023/03/04 10:59:23;;;;;;;;;;;6.60;99.90;;;;;;5047650;28;20041;-73
2023/03/04 11:01:53;;;;;;;24.13;2.47;;;6.60;99.90;;;;;;5034354;28;19925;-71
2023/03/04 11:04:22;;;;;;;14.80;2.25;;;6.60;99.90;;;;;;5034222;28;20768;-72
2023/03/04 11:06:47;;;;;;;19.13;2.45;;;6.60;99.90;;;;;;5033085;28;20362;-72
2023/03/04 11:09:28;;;;;;;17.73;2.45;;;6.60;99.90;;;;;;5017568;28;20115;-73
2023/03/04 11:11:59;;;;;;;17.23;2.97;;;7.10;99.90;;;;;;5035903;28;20080;-73
2023/03/04 11:14:43;;;;;;;19.83;2.47;;;6.60;99.90;;;;;;5022715;28;20755;-72
2023/03/04 11:17:25;;;;;;;18.20;2.10;;;6.60;99.90;;;;;;5038143;28;20516;-74
2023/03/04 11:20:25;;;;;;;16.88;2.08;;;6.60;99.90;;;;;;5053571;28;20045;-72
2023/03/04 11:22:53;;;;;;;18.75;2.47;;;6.60;99.90;;;;;;5020751;28;20040;-72
2023/03/04 11:25:30;;;;;;;16.33;2.17;;;6.70;99.90;;;;;;5049960;28;20041;-71
2023/03/04 11:28:11;;;;;;;26.90;3.10;;;6.70;99.90;;;;;;5034121;28;20677;-70
2023/03/04 11:30:43;;;;;;;12.98;2.05;;;6.80;99.90;;;;;;5037351;28;20417;-71
2023/03/04 11:33:12;;;;;;;19.40;2.85;;;6.90;99.90;;;;;;5035311;28;20699;-72
2023/03/04 11:35:49;;;;;;;15.90;2.95;;;6.80;99.90;;;;;;5035256;28;20077;-71
2023/03/04 11:38:38;;;;;;;15.07;2.30;;;6.70;99.90;;;;;;5033556;28;20522;-72
2023/03/04 11:41:11;;;;;;;15.70;2.17;;;6.70;99.90;;;;;;5034901;28;20037;-72
2023/03/04 11:43:40;;;;;;;21.50;2.55;;;6.70;99.90;;;;;;5034226;28;20616;-72
2023/03/04 11:46:13;;;;;;;16.45;2.65;;;6.60;99.90;;;;;;5036146;28;20091;-74
2023/03/04 11:48:54;;;;;;;17.30;2.45;;;6.60;99.90;;;;;;5036274;28;20048;-74
2023/03/04 11:51:30;;;;;;;24.98;2.60;;;6.50;99.90;;;;;;5040731;28;20107;-74
2023/03/04 11:54:22;;;;;;;21.92;3.20;;;6.50;99.90;;;;;;5041780;28;20059;-74
2023/03/04 11:57:26;;;;;;;21.95;3.35;;;6.50;99.90;;;;;;5040941;28;20549;-73
2023/03/04 12:00:18;;;;;;;29.85;3.90;;;6.40;99.90;;;;;;5037892;28;20593;-73
2023/03/04 12:02:53;;;;;;;19.13;3.30;;;6.40;99.90;;;;;;5046022;28;20052;-73
2023/03/04 12:05:29;;;;;;;25.88;3.25;;;6.40;99.90;;;;;;5026775;28;20819;-72
2023/03/04 12:08:20;;;;;;;15.02;2.50;;;6.50;99.90;;;;;;5036991;28;20449;-73
2023/03/04 12:11:09;;;;;;;19.13;3.05;;;6.50;99.90;;;;;;5036002;28;20094;-73
2023/03/04 12:13:53;;;;;;;24.33;3.22;;;6.60;99.90;;;;;;5038206;28;20094;-73
2023/03/04 12:16:38;;;;;;;16.85;2.47;;;6.60;99.90;;;;;;5042312;28;20083;-73
2023/03/04 12:19:45;;;;;;;16.85;2.50;;;6.50;99.90;;;;;;5040372;28;20045;-73
2023/03/04 12:22:42;;;;;;;14.82;2.50;;;6.50;99.90;;;;;;5044320;28;20037;-73
2023/03/04 12:25:33;;;;;;;20.30;2.35;;;6.40;99.90;;;;;;5043840;28;20600;-72
2023/03/04 12:28:29;;;;;;;20.80;2.53;;;6.50;99.90;;;;;;5058047;28;20529;-73
2023/03/04 12:31:27;;;;;;;26.95;3.17;;;6.60;99.90;;;;;;5061387;28;20072;-73
2023/03/04 12:34:26;;;;;;;14.52;2.50;;;6.70;99.90;;;;;;5062710;28;20692;-73
2023/03/04 12:37:29;;;;;;;20.98;2.72;;;6.70;99.90;;;;;;5044229;28;20610;-73
2023/03/04 12:40:19;;;;;;;19.80;2.75;;;6.50;99.90;;;;;;5040390;28;20052;-73
2023/03/04 12:43:20;;;;;;;26.83;3.58;;;6.40;99.90;;;;;;5040264;28;20064;-73
2023/03/04 12:45:59;;;;;;;19.23;2.67;;;6.30;99.90;;;;;;5043928;28;20463;-73
2023/03/04 12:48:43;;;;;;;20.60;2.50;;;6.40;99.90;;;;;;5042566;28;20048;-74
2023/03/04 12:51:28;;;;;;;18.40;2.55;;;6.50;99.90;;;;;;5040823;28;20045;-73
2023/03/04 12:53:55;;;;;;;14.25;2.78;;;6.60;99.90;;;;;;5027027;28;20040;-73
2023/03/04 12:56:36;;;;;;;18.50;3.45;;;6.60;99.90;;;;;;5042932;28;20048;-73
2023/03/04 12:59:02;;;;;;;17.40;2.50;;;6.70;99.90;;;;;;5039588;28;20123;-72
2023/03/04 13:02:00;;;;;;;12.88;2.22;;;6.80;99.90;;;;;;5039264;28;20125;-72